sensor_id;sensor_type;location;lat;lon;timestamp;temperature;humidity
5556;DHT22;2801;50.972;7.856;2022-08-21T00:01:49;11.60;99.90
5556;DHT22;2801;50.972;7.856;2022-08-21T00:04:17;11.50;99.90
5556;DHT22;2801;50.972;7.856;2022-08-21T00:06:49;11.40;99.90
5556;DHT22;2801;50.972;7.856;2022-08-21T00:09:18;11.40;99.90
5556;DHT22;2801;50.972;7.856;2022-08-21T00:11:47;11.40;99.90
5556;DHT22;2801;50.972;7.856;2022-08-21T00:14:15;11.40;99.90
5556;DHT22;2801;50.972;7.856;2022-08-21T00:16:42;11.50;99.90
5556;DHT22;2801;50.972;7.856;2022-08-21T00:19:09;11.40;99.90
5556;DHT22;2801;50.972;7.856;2022-08-21T00:21:37;11.40;99.90
5556;DHT22;2801;50.972;7.856;2022-08-21T00:24:04;11.30;99.90
5556;DHT22;2801;50.972;7.856;2022-08-21T00:26:33;11.30;99.90
5556;DHT22;2801;50.972;7.856;2022-08-21T00:29:02;11.20;99.90
5556;DHT22;2801;50.972;7.856;2022-08-21T00:31:29;11.40;99.90
5556;DHT22;2801;50.972;7.856;2022-08-21T00:33:56;11.20;99.90
5556;DHT22;2801;50.972;7.856;2022-08-21T00:36:27;11.20;99.90
5556;DHT22;2801;50.972;7.856;2022-08-21T00:38:55;11.20;99.90
5556;DHT22;2801;50.972;7.856;2022-08-21T00:41:23;11.20;99.90
5556;DHT22;2801;50.972;7.856;2022-08-21T00:44:05;11.20;99.90
5556;DHT22;2801;50.972;7.856;2022-08-21T00:46:34;11.10;99.90
5556;DHT22;2801;50.972;7.856;2022-08-21T00:49:02;11.10;99.90
5556;DHT22;2801;50.972;7.856;2022-08-21T00:51:38;11.00;99.90
5556;DHT22;2801;50.972;7.856;2022-08-21T00:54:09;11.00;99.90
5556;DHT22;2801;50.972;7.856;2022-08-21T00:56:44;11.00;99.90
5556;DHT22;2801;50.972;7.856;2022-08-21T00:59:16;10.90;99.90
5556;DHT22;2801;50.972;7.856;2022-08-21T01:01:45;10.90;99.90
5556;DHT22;2801;50.972;7.856;2022-08-21T01:04:13;10.90;99.90
5556;DHT22;2801;50.972;7.856;2022-08-21T01:06:42;10.80;99.90
5556;DHT22;2801;50.972;7.856;2022-08-21T01:09:10;10.80;99.90
5556;DHT22;2801;50.972;7.856;2022-08-21T01:11:38;10.80;99.90
5556;DHT22;2801;50.972;7.856;2022-08-21T01:14:06;10.70;99.90
5556;DHT22;2801;50.972;7.856;2022-08-21T01:16:33;10.70;99.90
5556;DHT22;2801;50.972;7.856;2022-08-21T01:19:01;10.70;99.90
5556;DHT22;2801;50.972;7.856;2022-08-21T01:21:28;10.60;99.90
5556;DHT22;2801;50.972;7.856;2022-08-21T01:23:56;10.60;99.90
5556;DHT22;2801;50.972;7.856;2022-08-21T01:26:27;10.60;99.90
5556;DHT22;2801;50.972;7.856;2022-08-21T01:32:00;10.60;99.90
5556;DHT22;2801;50.972;7.856;2022-08-21T01:34:37;10.50;99.90
5556;DHT22;2801;50.972;7.856;2022-08-21T01:37:06;10.50;99.90
5556;DHT22;2801;50.972;7.856;2022-08-21T01:39:34;10.60;99.90
5556;DHT22;2801;50.972;7.856;2022-08-21T01:42:02;10.70;99.90
5556;DHT22;2801;50.972;7.856;2022-08-21T01:44:31;10.50;99.90
5556;DHT22;2801;50.972;7.856;2022-08-21T01:47:01;10.40;99.90
5556;DHT22;2801;50.972;7.856;2022-08-21T01:49:30;10.50;99.90
5556;DHT22;2801;50.972;7.856;2022-08-21T01:51:57;10.50;99.90
5556;DHT22;2801;50.972;7.856;2022-08-21T01:54:24;10.50;99.90
5556;DHT22;2801;50.972;7.856;2022-08-21T01:56:52;10.40;99.90
5556;DHT22;2801;50.972;7.856;2022-08-21T01:59:22;10.40;99.90
5556;DHT22;2801;50.972;7.856;2022-08-21T02:01:50;10.50;99.90
5556;DHT22;2801;50.972;7.856;2022-08-21T02:04:17;10.30;99.90
5556;DHT22;2801;50.972;7.856;2022-08-21T02:06:44;10.30;99.90
5556;DHT22;2801;50.972;7.856;2022-08-21T02:09:11;10.30;99.90
5556;DHT22;2801;50.972;7.856;2022-08-21T02:11:41;10.30;99.90
5556;DHT22;2801;50.972;7.856;2022-08-21T02:14:10;10.20;99.90
5556;DHT22;2801;50.972;7.856;2022-08-21T02:16:40;10.20;99.90
5556;DHT22;2801;50.972;7.856;2022-08-21T02:19:09;10.10;99.90
5556;DHT22;2801;50.972;7.856;2022-08-21T02:21:36;10.10;99.90
5556;DHT22;2801;50.972;7.856;2022-08-21T02:24:04;10.00;99.90
5556;DHT22;2801;50.972;7.856;2022-08-21T02:26:32;10.00;99.90
5556;DHT22;2801;50.972;7.856;2022-08-21T02:28:59;10.00;99.90
5556;DHT22;2801;50.972;7.856;2022-08-21T02:31:26;10.00;99.90
5556;DHT22;2801;50.972;7.856;2022-08-21T02:33:53;10.00;99.90
5556;DHT22;2801;50.972;7.856;2022-08-21T02:36:20;9.90;99.90
5556;DHT22;2801;50.972;7.856;2022-08-21T02:38:47;9.90;99.90
5556;DHT22;2801;50.972;7.856;2022-08-21T02:41:17;9.90;99.90
5556;DHT22;2801;50.972;7.856;2022-08-21T02:43:45;9.80;99.90
5556;DHT22;2801;50.972;7.856;2022-08-21T02:46:14;9.80;99.90
5556;DHT22;2801;50.972;7.856;2022-08-21T02:48:43;9.80;99.90
5556;DHT22;2801;50.972;7.856;2022-08-21T02:51:14;9.80;99.90
5556;DHT22;2801;50.972;7.856;2022-08-21T02:53:46;9.80;99.90
5556;DHT22;2801;50.972;7.856;2022-08-21T02:56:16;9.80;99.90
5556;DHT22;2801;50.972;7.856;2022-08-21T02:58:50;9.80;99.90
5556;DHT22;2801;50.972;7.856;2022-08-21T03:01:19;9.80;99.90
5556;DHT22;2801;50.972;7.856;2022-08-21T03:03:47;9.70;99.90
5556;DHT22;2801;50.972;7.856;2022-08-21T03:06:19;9.70;99.90
5556;DHT22;2801;50.972;7.856;2022-08-21T03:08:48;9.60;99.90
5556;DHT22;2801;50.972;7.856;2022-08-21T03:11:15;9.60;99.90
5556;DHT22;2801;50.972;7.856;2022-08-21T03:13:42;9.50;99.90
5556;DHT22;2801;50.972;7.856;2022-08-21T03:16:09;9.40;99.90
5556;DHT22;2801;50.972;7.856;2022-08-21T03:18:37;9.40;99.90
5556;DHT22;2801;50.972;7.856;2022-08-21T03:21:06;9.40;99.90
5556;DHT22;2801;50.972;7.856;2022-08-21T03:23:33;9.40;99.90
5556;DHT22;2801;50.972;7.856;2022-08-21T03:26:00;9.50;99.90
5556;DHT22;2801;50.972;7.856;2022-08-21T03:28:27;9.50;99.90
5556;DHT22;2801;50.972;7.856;2022-08-21T03:30:55;9.40;99.90
5556;DHT22;2801;50.972;7.856;2022-08-21T03:33:22;9.50;99.90
5556;DHT22;2801;50.972;7.856;2022-08-21T03:36:02;9.50;99.90
5556;DHT22;2801;50.972;7.856;2022-08-21T03:38:33;9.50;99.90
5556;DHT22;2801;50.972;7.856;2022-08-21T03:41:01;9.50;99.90
5556;DHT22;2801;50.972;7.856;2022-08-21T03:43:31;9.60;99.90
5556;DHT22;2801;50.972;7.856;2022-08-21T03:46:01;9.40;99.90
5556;DHT22;2801;50.972;7.856;2022-08-21T03:48:28;9.40;99.90
5556;DHT22;2801;50.972;7.856;2022-08-21T03:50:56;9.50;99.90
5556;DHT22;2801;50.972;7.856;2022-08-21T03:53:23;9.40;99.90
5556;DHT22;2801;50.972;7.856;2022-08-21T03:55:51;9.40;99.90
5556;DHT22;2801;50.972;7.856;2022-08-21T03:58:25;9.40;99.90
5556;DHT22;2801;50.972;7.856;2022-08-21T04:00:56;9.40;99.90
5556;DHT22;2801;50.972;7.856;2022-08-21T04:03:26;9.40;99.90
5556;DHT22;2801;50.972;7.856;2022-08-21T04:05:54;9.40;99.90
5556;DHT22;2801;50.972;7.856;2022-08-21T04:08:21;9.40;99.90
5556;DHT22;2801;50.972;7.856;2022-08-21T04:10:51;9.40;99.90
5556;DHT22;2801;50.972;7.856;2022-08-21T04:13:20;9.50;99.90
5556;DHT22;2801;50.972;7.856;2022-08-21T04:15:48;9.50;99.90
5556;DHT22;2801;50.972;7.856;2022-08-21T04:18:16;9.60;99.90
5556;DHT22;2801;50.972;7.856;2022-08-21T04:20:44;9.70;99.90
5556;DHT22;2801;50.972;7.856;2022-08-21T04:23:18;9.80;99.90
5556;DHT22;2801;50.972;7.856;2022-08-21T04:25:51;9.90;99.90
5556;DHT22;2801;50.972;7.856;2022-08-21T04:28:20;10.00;99.90
5556;DHT22;2801;50.972;7.856;2022-08-21T04:30:50;10.00;99.90
5556;DHT22;2801;50.972;7.856;2022-08-21T04:33:19;10.10;99.90
5556;DHT22;2801;50.972;7.856;2022-08-21T04:35:48;10.10;99.90
5556;DHT22;2801;50.972;7.856;2022-08-21T04:38:15;10.10;99.90
5556;DHT22;2801;50.972;7.856;2022-08-21T04:40:43;10.10;99.90
5556;DHT22;2801;50.972;7.856;2022-08-21T04:43:11;10.10;99.90
5556;DHT22;2801;50.972;7.856;2022-08-21T04:45:42;10.10;99.90
5556;DHT22;2801;50.972;7.856;2022-08-21T04:48:12;10.10;99.90
5556;DHT22;2801;50.972;7.856;2022-08-21T04:53:32;10.00;99.90
5556;DHT22;2801;50.972;7.856;2022-08-21T04:56:15;9.90;99.90
5556;DHT22;2801;50.972;7.856;2022-08-21T04:58:48;9.90;99.90
5556;DHT22;2801;50.972;7.856;2022-08-21T05:01:19;9.90;99.90
5556;DHT22;2801;50.972;7.856;2022-08-21T05:03:51;9.90;99.90
5556;DHT22;2801;50.972;7.856;2022-08-21T05:06:23;9.80;99.90
5556;DHT22;2801;50.972;7.856;2022-08-21T05:08:53;9.90;99.90
5556;DHT22;2801;50.972;7.856;2022-08-21T05:11:29;9.90;99.90
5556;DHT22;2801;50.972;7.856;2022-08-21T05:13:57;10.00;99.90
5556;DHT22;2801;50.972;7.856;2022-08-21T05:16:24;10.00;99.90
5556;DHT22;2801;50.972;7.856;2022-08-21T05:19:04;9.90;99.90
5556;DHT22;2801;50.972;7.856;2022-08-21T05:21:33;10.00;99.90
5556;DHT22;2801;50.972;7.856;2022-08-21T05:24:04;10.00;99.90
5556;DHT22;2801;50.972;7.856;2022-08-21T05:26:32;10.20;99.90
5556;DHT22;2801;50.972;7.856;2022-08-21T05:29:11;10.40;99.90
5556;DHT22;2801;50.972;7.856;2022-08-21T05:31:38;10.50;99.90
5556;DHT22;2801;50.972;7.856;2022-08-21T05:34:06;10.80;99.90
5556;DHT22;2801;50.972;7.856;2022-08-21T05:36:33;11.40;99.90
5556;DHT22;2801;50.972;7.856;2022-08-21T05:39:00;12.00;99.90
5556;DHT22;2801;50.972;7.856;2022-08-21T05:41:27;12.70;99.90
5556;DHT22;2801;50.972;7.856;2022-08-21T05:43:54;13.30;99.90
5556;DHT22;2801;50.972;7.856;2022-08-21T05:46:21;13.90;99.90
5556;DHT22;2801;50.972;7.856;2022-08-21T05:48:48;14.30;99.90
5556;DHT22;2801;50.972;7.856;2022-08-21T05:51:15;14.90;99.90
5556;DHT22;2801;50.972;7.856;2022-08-21T05:53:43;15.50;99.90
5556;DHT22;2801;50.972;7.856;2022-08-21T05:56:12;16.00;99.90
5556;DHT22;2801;50.972;7.856;2022-08-21T05:58:39;16.60;99.90
5556;DHT22;2801;50.972;7.856;2022-08-21T06:01:06;17.10;99.90
5556;DHT22;2801;50.972;7.856;2022-08-21T06:03:38;17.60;99.90
5556;DHT22;2801;50.972;7.856;2022-08-21T06:06:06;18.00;99.90
5556;DHT22;2801;50.972;7.856;2022-08-21T06:08:34;18.30;99.90
5556;DHT22;2801;50.972;7.856;2022-08-21T06:11:03;18.60;99.90
5556;DHT22;2801;50.972;7.856;2022-08-21T06:13:31;18.90;99.90
5556;DHT22;2801;50.972;7.856;2022-08-21T06:16:13;19.10;99.90
5556;DHT22;2801;50.972;7.856;2022-08-21T06:18:43;19.20;99.90
5556;DHT22;2801;50.972;7.856;2022-08-21T06:21:12;19.50;99.90
5556;DHT22;2801;50.972;7.856;2022-08-21T06:23:40;19.80;99.90
5556;DHT22;2801;50.972;7.856;2022-08-21T06:26:10;20.10;99.90
5556;DHT22;2801;50.972;7.856;2022-08-21T06:28:39;20.70;99.90
5556;DHT22;2801;50.972;7.856;2022-08-21T06:31:15;21.20;99.90
5556;DHT22;2801;50.972;7.856;2022-08-21T06:33:44;21.70;99.90
5556;DHT22;2801;50.972;7.856;2022-08-21T06:36:12;22.30;99.90
5556;DHT22;2801;50.972;7.856;2022-08-21T06:38:40;22.70;99.90
5556;DHT22;2801;50.972;7.856;2022-08-21T06:41:16;22.90;99.90
5556;DHT22;2801;50.972;7.856;2022-08-21T06:43:43;23.20;99.90
5556;DHT22;2801;50.972;7.856;2022-08-21T06:46:10;23.50;99.90
5556;DHT22;2801;50.972;7.856;2022-08-21T06:48:37;23.80;99.90
5556;DHT22;2801;50.972;7.856;2022-08-21T06:51:04;24.00;99.90
5556;DHT22;2801;50.972;7.856;2022-08-21T06:53:31;24.40;99.90
5556;DHT22;2801;50.972;7.856;2022-08-21T06:55:59;24.80;99.90
5556;DHT22;2801;50.972;7.856;2022-08-21T06:58:26;25.40;99.90
5556;DHT22;2801;50.972;7.856;2022-08-21T07:00:53;25.80;99.90
5556;DHT22;2801;50.972;7.856;2022-08-21T07:03:29;26.20;99.90
5556;DHT22;2801;50.972;7.856;2022-08-21T07:05:59;26.80;99.90
5556;DHT22;2801;50.972;7.856;2022-08-21T07:08:27;27.30;99.80
5556;DHT22;2801;50.972;7.856;2022-08-21T07:10:57;27.80;98.10
5556;DHT22;2801;50.972;7.856;2022-08-21T07:13:27;28.20;97.70
5556;DHT22;2801;50.972;7.856;2022-08-21T07:15:54;28.50;95.80
5556;DHT22;2801;50.972;7.856;2022-08-21T07:18:27;28.70;95.80
5556;DHT22;2801;50.972;7.856;2022-08-21T07:20:54;28.80;95.20
5556;DHT22;2801;50.972;7.856;2022-08-21T07:23:22;28.90;95.30
5556;DHT22;2801;50.972;7.856;2022-08-21T07:25:53;29.50;94.30
5556;DHT22;2801;50.972;7.856;2022-08-21T07:28:20;30.10;92.40
5556;DHT22;2801;50.972;7.856;2022-08-21T07:30:51;30.60;92.30
5556;DHT22;2801;50.972;7.856;2022-08-21T07:33:21;30.90;91.40
5556;DHT22;2801;50.972;7.856;2022-08-21T07:35:49;31.30;90.80
5556;DHT22;2801;50.972;7.856;2022-08-21T07:38:16;31.70;90.20
5556;DHT22;2801;50.972;7.856;2022-08-21T07:40:45;32.20;88.00
5556;DHT22;2801;50.972;7.856;2022-08-21T07:43:13;32.80;82.50
5556;DHT22;2801;50.972;7.856;2022-08-21T07:45:43;33.20;81.40
5556;DHT22;2801;50.972;7.856;2022-08-21T07:48:11;33.70;80.30
5556;DHT22;2801;50.972;7.856;2022-08-21T07:50:39;33.90;78.50
5556;DHT22;2801;50.972;7.856;2022-08-21T07:53:07;33.90;75.00
5556;DHT22;2801;50.972;7.856;2022-08-21T07:55:34;33.70;77.10
5556;DHT22;2801;50.972;7.856;2022-08-21T07:58:01;33.80;75.10
5556;DHT22;2801;50.972;7.856;2022-08-21T08:00:28;34.10;71.50
5556;DHT22;2801;50.972;7.856;2022-08-21T08:02:56;34.20;68.40
5556;DHT22;2801;50.972;7.856;2022-08-21T08:05:27;33.70;68.80
5556;DHT22;2801;50.972;7.856;2022-08-21T08:07:56;33.40;69.80
5556;DHT22;2801;50.972;7.856;2022-08-21T08:10:24;33.20;69.40
5556;DHT22;2801;50.972;7.856;2022-08-21T08:12:53;33.40;69.80
5556;DHT22;2801;50.972;7.856;2022-08-21T08:15:23;33.40;69.60
5556;DHT22;2801;50.972;7.856;2022-08-21T08:17:53;33.40;69.10
5556;DHT22;2801;50.972;7.856;2022-08-21T08:20:22;33.60;65.30
5556;DHT22;2801;50.972;7.856;2022-08-21T08:22:52;33.60;60.70
5556;DHT22;2801;50.972;7.856;2022-08-21T08:25:21;33.50;60.50
5556;DHT22;2801;50.972;7.856;2022-08-21T08:27:49;33.40;58.80
5556;DHT22;2801;50.972;7.856;2022-08-21T08:30:17;33.30;58.10
5556;DHT22;2801;50.972;7.856;2022-08-21T08:32:46;32.00;58.90
5556;DHT22;2801;50.972;7.856;2022-08-21T08:35:14;30.50;61.50
5556;DHT22;2801;50.972;7.856;2022-08-21T08:37:42;29.60;63.50
5556;DHT22;2801;50.972;7.856;2022-08-21T08:43:50;29.40;66.00
5556;DHT22;2801;50.972;7.856;2022-08-21T08:46:30;30.70;64.50
5556;DHT22;2801;50.972;7.856;2022-08-21T08:49:14;31.40;62.30
5556;DHT22;2801;50.972;7.856;2022-08-21T08:51:53;31.20;62.80
5556;DHT22;2801;50.972;7.856;2022-08-21T08:54:51;31.30;62.30
5556;DHT22;2801;50.972;7.856;2022-08-21T08:57:28;32.20;60.10
5556;DHT22;2801;50.972;7.856;2022-08-21T09:00:00;33.00;60.10
5556;DHT22;2801;50.972;7.856;2022-08-21T09:02:33;33.70;58.70
5556;DHT22;2801;50.972;7.856;2022-08-21T09:05:01;34.10;57.40
5556;DHT22;2801;50.972;7.856;2022-08-21T09:07:52;34.20;57.50
5556;DHT22;2801;50.972;7.856;2022-08-21T09:13:31;33.50;57.70
5556;DHT22;2801;50.972;7.856;2022-08-21T09:17:04;32.10;58.40
5556;DHT22;2801;50.972;7.856;2022-08-21T09:22:42;28.90;65.10
5556;DHT22;2801;50.972;7.856;2022-08-21T09:25:28;28.20;66.80
5556;DHT22;2801;50.972;7.856;2022-08-21T09:27:59;28.20;67.70
5556;DHT22;2801;50.972;7.856;2022-08-21T09:30:30;28.60;66.60
5556;DHT22;2801;50.972;7.856;2022-08-21T09:32:58;29.10;64.80
5556;DHT22;2801;50.972;7.856;2022-08-21T09:35:26;29.60;64.20
5556;DHT22;2801;50.972;7.856;2022-08-21T09:37:59;29.60;62.80
5556;DHT22;2801;50.972;7.856;2022-08-21T09:40:43;29.40;62.20
5556;DHT22;2801;50.972;7.856;2022-08-21T09:43:18;28.70;63.90
5556;DHT22;2801;50.972;7.856;2022-08-21T09:45:48;28.20;63.70
5556;DHT22;2801;50.972;7.856;2022-08-21T09:48:24;27.90;64.70
5556;DHT22;2801;50.972;7.856;2022-08-21T09:50:53;27.60;66.30
5556;DHT22;2801;50.972;7.856;2022-08-21T09:53:31;27.40;67.80
5556;DHT22;2801;50.972;7.856;2022-08-21T09:56:20;27.20;69.20
5556;DHT22;2801;50.972;7.856;2022-08-21T09:59:32;27.20;69.20
5556;DHT22;2801;50.972;7.856;2022-08-21T10:02:32;27.90;68.30
5556;DHT22;2801;50.972;7.856;2022-08-21T10:05:15;28.70;65.10
5556;DHT22;2801;50.972;7.856;2022-08-21T10:07:45;29.20;64.60
5556;DHT22;2801;50.972;7.856;2022-08-21T10:10:17;29.60;61.70
5556;DHT22;2801;50.972;7.856;2022-08-21T10:13:13;29.30;62.40
5556;DHT22;2801;50.972;7.856;2022-08-21T10:18:44;31.30;58.50
5556;DHT22;2801;50.972;7.856;2022-08-21T10:21:38;32.10;56.70
5556;DHT22;2801;50.972;7.856;2022-08-21T10:27:24;32.20;55.10
5556;DHT22;2801;50.972;7.856;2022-08-21T10:35:32;32.80;53.80
5556;DHT22;2801;50.972;7.856;2022-08-21T10:47:46;32.60;53.70
5556;DHT22;2801;50.972;7.856;2022-08-21T10:56:20;32.90;52.30
5556;DHT22;2801;50.972;7.856;2022-08-21T11:02:17;32.40;52.80
5556;DHT22;2801;50.972;7.856;2022-08-21T11:05:02;32.00;53.20
5556;DHT22;2801;50.972;7.856;2022-08-21T11:07:53;31.70;53.40
5556;DHT22;2801;50.972;7.856;2022-08-21T11:10:33;31.40;54.70
5556;DHT22;2801;50.972;7.856;2022-08-21T11:13:38;30.80;55.20
5556;DHT22;2801;50.972;7.856;2022-08-21T11:16:23;29.80;56.70
5556;DHT22;2801;50.972;7.856;2022-08-21T11:19:22;28.80;58.80
5556;DHT22;2801;50.972;7.856;2022-08-21T11:27:56;27.60;62.70
5556;DHT22;2801;50.972;7.856;2022-08-21T11:42:15;27.00;66.20
5556;DHT22;2801;50.972;7.856;2022-08-21T11:48:26;26.60;67.60
5556;DHT22;2801;50.972;7.856;2022-08-21T11:51:12;26.50;67.00
5556;DHT22;2801;50.972;7.856;2022-08-21T11:53:52;26.30;68.00
5556;DHT22;2801;50.972;7.856;2022-08-21T11:56:37;26.20;69.60
5556;DHT22;2801;50.972;7.856;2022-08-21T11:59:25;26.10;69.60
5556;DHT22;2801;50.972;7.856;2022-08-21T12:02:17;25.90;68.20
5556;DHT22;2801;50.972;7.856;2022-08-21T12:04:53;25.90;70.30
5556;DHT22;2801;50.972;7.856;2022-08-21T12:07:40;26.10;70.20
5556;DHT22;2801;50.972;7.856;2022-08-21T12:10:14;26.30;70.00
5556;DHT22;2801;50.972;7.856;2022-08-21T12:12:44;26.50;69.50
5556;DHT22;2801;50.972;7.856;2022-08-21T12:15:23;26.80;69.00
5556;DHT22;2801;50.972;7.856;2022-08-21T12:26:02;26.60;66.10
5556;DHT22;2801;50.972;7.856;2022-08-21T12:28:50;26.50;67.10
5556;DHT22;2801;50.972;7.856;2022-08-21T12:31:25;26.40;67.60
5556;DHT22;2801;50.972;7.856;2022-08-21T12:34:01;26.30;67.00
5556;DHT22;2801;50.972;7.856;2022-08-21T12:37:44;26.30;67.50
5556;DHT22;2801;50.972;7.856;2022-08-21T12:40:04;26.30;66.50
5556;DHT22;2801;50.972;7.856;2022-08-21T12:42:46;26.10;67.20
5556;DHT22;2801;50.972;7.856;2022-08-21T12:45:44;26.10;67.00
5556;DHT22;2801;50.972;7.856;2022-08-21T12:51:05;26.30;67.60
5556;DHT22;2801;50.972;7.856;2022-08-21T12:53:52;26.40;65.40
5556;DHT22;2801;50.972;7.856;2022-08-21T12:56:24;26.50;66.50
5556;DHT22;2801;50.972;7.856;2022-08-21T12:58:56;26.60;66.30
5556;DHT22;2801;50.972;7.856;2022-08-21T13:01:35;26.80;65.30
5556;DHT22;2801;50.972;7.856;2022-08-21T13:04:13;27.10;65.50
5556;DHT22;2801;50.972;7.856;2022-08-21T13:06:46;27.30;64.80
5556;DHT22;2801;50.972;7.856;2022-08-21T13:09:18;27.30;62.00
5556;DHT22;2801;50.972;7.856;2022-08-21T13:11:52;27.20;64.80
5556;DHT22;2801;50.972;7.856;2022-08-21T13:14:31;27.20;64.00
5556;DHT22;2801;50.972;7.856;2022-08-21T13:17:11;27.30;59.60
5556;DHT22;2801;50.972;7.856;2022-08-21T13:19:57;27.40;61.50
5556;DHT22;2801;50.972;7.856;2022-08-21T13:22:26;27.50;61.10
5556;DHT22;2801;50.972;7.856;2022-08-21T13:25:01;27.50;60.50
5556;DHT22;2801;50.972;7.856;2022-08-21T13:27:33;27.70;61.60
5556;DHT22;2801;50.972;7.856;2022-08-21T13:30:21;28.00;61.20
5556;DHT22;2801;50.972;7.856;2022-08-21T13:32:54;28.10;59.00
5556;DHT22;2801;50.972;7.856;2022-08-21T13:35:46;28.10;61.90
5556;DHT22;2801;50.972;7.856;2022-08-21T13:38:14;28.10;61.50
5556;DHT22;2801;50.972;7.856;2022-08-21T13:41:08;28.40;61.50
5556;DHT22;2801;50.972;7.856;2022-08-21T13:43:48;28.50;59.80
5556;DHT22;2801;50.972;7.856;2022-08-21T13:46:24;28.30;58.10
5556;DHT22;2801;50.972;7.856;2022-08-21T13:48:55;27.80;58.20
5556;DHT22;2801;50.972;7.856;2022-08-21T13:51:22;27.40;58.90
5556;DHT22;2801;50.972;7.856;2022-08-21T13:53:51;27.00;59.20
5556;DHT22;2801;50.972;7.856;2022-08-21T13:56:30;26.80;59.40
5556;DHT22;2801;50.972;7.856;2022-08-21T13:59:02;26.60;59.40
5556;DHT22;2801;50.972;7.856;2022-08-21T14:04:07;26.30;59.30
5556;DHT22;2801;50.972;7.856;2022-08-21T14:06:46;26.30;60.20
5556;DHT22;2801;50.972;7.856;2022-08-21T14:11:56;26.60;59.80
5556;DHT22;2801;50.972;7.856;2022-08-21T14:14:32;26.70;59.80
5556;DHT22;2801;50.972;7.856;2022-08-21T14:17:07;26.80;58.20
5556;DHT22;2801;50.972;7.856;2022-08-21T14:19:58;27.00;60.00
5556;DHT22;2801;50.972;7.856;2022-08-21T14:25:02;26.70;58.90
5556;DHT22;2801;50.972;7.856;2022-08-21T14:27:40;26.60;59.40
5556;DHT22;2801;50.972;7.856;2022-08-21T14:30:33;26.50;59.10
5556;DHT22;2801;50.972;7.856;2022-08-21T14:33:09;26.40;58.90
5556;DHT22;2801;50.972;7.856;2022-08-21T14:35:38;26.00;59.20
5556;DHT22;2801;50.972;7.856;2022-08-21T14:38:15;25.90;60.10
5556;DHT22;2801;50.972;7.856;2022-08-21T14:40:48;26.10;61.20
5556;DHT22;2801;50.972;7.856;2022-08-21T14:43:17;26.20;61.20
5556;DHT22;2801;50.972;7.856;2022-08-21T14:45:46;26.30;61.40
5556;DHT22;2801;50.972;7.856;2022-08-21T14:48:13;26.50;61.90
5556;DHT22;2801;50.972;7.856;2022-08-21T14:50:41;26.60;62.00
5556;DHT22;2801;50.972;7.856;2022-08-21T14:53:08;26.50;61.10
5556;DHT22;2801;50.972;7.856;2022-08-21T14:55:37;26.50;61.90
5556;DHT22;2801;50.972;7.856;2022-08-21T14:58:40;26.70;61.80
5556;DHT22;2801;50.972;7.856;2022-08-21T15:01:11;26.90;62.80
5556;DHT22;2801;50.972;7.856;2022-08-21T15:03:41;27.00;61.50
5556;DHT22;2801;50.972;7.856;2022-08-21T15:06:08;27.00;61.00
5556;DHT22;2801;50.972;7.856;2022-08-21T15:08:37;27.00;60.80
5556;DHT22;2801;50.972;7.856;2022-08-21T15:11:06;26.90;60.50
5556;DHT22;2801;50.972;7.856;2022-08-21T15:13:39;26.60;60.30
5556;DHT22;2801;50.972;7.856;2022-08-21T15:16:09;26.50;60.90
5556;DHT22;2801;50.972;7.856;2022-08-21T15:18:38;26.50;61.10
5556;DHT22;2801;50.972;7.856;2022-08-21T15:21:05;26.60;61.00
5556;DHT22;2801;50.972;7.856;2022-08-21T15:23:32;26.60;60.80
5556;DHT22;2801;50.972;7.856;2022-08-21T15:26:00;26.70;61.10
5556;DHT22;2801;50.972;7.856;2022-08-21T15:28:28;26.90;61.50
5556;DHT22;2801;50.972;7.856;2022-08-21T15:30:59;27.00;61.70
5556;DHT22;2801;50.972;7.856;2022-08-21T15:33:27;27.20;61.40
5556;DHT22;2801;50.972;7.856;2022-08-21T15:35:55;27.30;60.80
5556;DHT22;2801;50.972;7.856;2022-08-21T15:38:22;27.40;60.00
5556;DHT22;2801;50.972;7.856;2022-08-21T15:40:50;27.30;59.80
5556;DHT22;2801;50.972;7.856;2022-08-21T15:43:27;27.30;59.90
5556;DHT22;2801;50.972;7.856;2022-08-21T15:45:58;27.30;59.80
5556;DHT22;2801;50.972;7.856;2022-08-21T15:48:26;27.30;59.40
5556;DHT22;2801;50.972;7.856;2022-08-21T15:50:53;27.30;58.80
5556;DHT22;2801;50.972;7.856;2022-08-21T15:53:20;27.00;58.60
5556;DHT22;2801;50.972;7.856;2022-08-21T15:55:47;26.90;58.60
5556;DHT22;2801;50.972;7.856;2022-08-21T15:58:15;26.70;58.90
5556;DHT22;2801;50.972;7.856;2022-08-21T16:00:44;26.50;59.50
5556;DHT22;2801;50.972;7.856;2022-08-21T16:03:16;26.40;59.90
5556;DHT22;2801;50.972;7.856;2022-08-21T16:05:46;26.30;60.00
5556;DHT22;2801;50.972;7.856;2022-08-21T16:08:16;26.10;59.70
5556;DHT22;2801;50.972;7.856;2022-08-21T16:10:43;26.00;60.00
5556;DHT22;2801;50.972;7.856;2022-08-21T16:13:25;25.90;59.90
5556;DHT22;2801;50.972;7.856;2022-08-21T16:15:55;25.50;60.20
5556;DHT22;2801;50.972;7.856;2022-08-21T16:18:23;25.40;60.70
5556;DHT22;2801;50.972;7.856;2022-08-21T16:20:52;25.20;60.90
5556;DHT22;2801;50.972;7.856;2022-08-21T16:23:19;25.10;61.40
5556;DHT22;2801;50.972;7.856;2022-08-21T16:25:46;25.00;62.30
5556;DHT22;2801;50.972;7.856;2022-08-21T16:28:16;24.90;62.70
5556;DHT22;2801;50.972;7.856;2022-08-21T16:30:47;24.80;63.10
5556;DHT22;2801;50.972;7.856;2022-08-21T16:33:27;24.70;63.20
5556;DHT22;2801;50.972;7.856;2022-08-21T16:35:58;24.60;64.10
5556;DHT22;2801;50.972;7.856;2022-08-21T16:38:27;24.50;64.20
5556;DHT22;2801;50.972;7.856;2022-08-21T16:40:55;24.40;64.30
5556;DHT22;2801;50.972;7.856;2022-08-21T16:43:24;24.30;64.50
5556;DHT22;2801;50.972;7.856;2022-08-21T16:45:53;24.30;65.00
5556;DHT22;2801;50.972;7.856;2022-08-21T16:48:22;24.20;65.50
5556;DHT22;2801;50.972;7.856;2022-08-21T16:50:50;24.20;66.00
5556;DHT22;2801;50.972;7.856;2022-08-21T16:53:17;24.20;66.10
5556;DHT22;2801;50.972;7.856;2022-08-21T16:55:45;24.20;65.70
5556;DHT22;2801;50.972;7.856;2022-08-21T16:58:34;24.10;65.90
5556;DHT22;2801;50.972;7.856;2022-08-21T17:01:06;24.10;65.80
5556;DHT22;2801;50.972;7.856;2022-08-21T17:03:39;24.00;65.50
5556;DHT22;2801;50.972;7.856;2022-08-21T17:06:09;24.00;65.50
5556;DHT22;2801;50.972;7.856;2022-08-21T17:08:36;23.90;65.90
5556;DHT22;2801;50.972;7.856;2022-08-21T17:11:16;23.80;65.70
5556;DHT22;2801;50.972;7.856;2022-08-21T17:14:10;23.80;66.30
5556;DHT22;2801;50.972;7.856;2022-08-21T17:16:43;23.70;66.40
5556;DHT22;2801;50.972;7.856;2022-08-21T17:19:12;23.60;66.70
5556;DHT22;2801;50.972;7.856;2022-08-21T17:21:40;23.50;66.70
5556;DHT22;2801;50.972;7.856;2022-08-21T17:24:07;23.50;67.30
5556;DHT22;2801;50.972;7.856;2022-08-21T17:26:34;23.40;67.40
5556;DHT22;2801;50.972;7.856;2022-08-21T17:29:03;23.30;67.50
5556;DHT22;2801;50.972;7.856;2022-08-21T17:31:36;23.20;67.80
5556;DHT22;2801;50.972;7.856;2022-08-21T17:34:05;23.20;68.30
5556;DHT22;2801;50.972;7.856;2022-08-21T17:36:33;23.10;68.40
5556;DHT22;2801;50.972;7.856;2022-08-21T17:39:00;23.00;68.60
5556;DHT22;2801;50.972;7.856;2022-08-21T17:41:28;23.00;69.00
5556;DHT22;2801;50.972;7.856;2022-08-21T17:43:55;22.90;69.20
5556;DHT22;2801;50.972;7.856;2022-08-21T17:46:25;22.80;70.00
5556;DHT22;2801;50.972;7.856;2022-08-21T17:48:54;22.70;70.50
5556;DHT22;2801;50.972;7.856;2022-08-21T17:51:22;22.60;70.40
5556;DHT22;2801;50.972;7.856;2022-08-21T17:53:49;22.60;70.90
5556;DHT22;2801;50.972;7.856;2022-08-21T17:56:17;22.60;71.50
5556;DHT22;2801;50.972;7.856;2022-08-21T17:58:48;22.40;71.90
5556;DHT22;2801;50.972;7.856;2022-08-21T18:01:17;22.30;72.60
5556;DHT22;2801;50.972;7.856;2022-08-21T18:03:45;22.30;73.20